Time;durP1;ratioP1;P1;durP2;ratioP2;P2;SDS_P1;SDS_P2;PMS_P1;PMS_P2;Temp;Humidity;BMP_temperature;BMP_pressure;BME280_temperature;BME280_humidity;BME280_pressure;Samples;Min_cycle;Max_cycle;Signal;HPM_P1;HPM_P2
2021/05/29 00:01:30;;;;;;;;;;;;;;;8.23;71.43;96312.56;3606214;39;19979;-54
2021/05/29 00:03:57;;;;;;;;;;;;;;;8.19;71.79;96297.47;3605665;39;19940;-52
2021/05/29 00:06:25;;;;;;;;;;;;;;;8.14;72.01;96300.81;3598513;39;20055;-54
2021/05/29 00:08:53;;;;;;;;;;;;;;;8.10;72.89;96299.66;3602457;39;19950;-54
2021/05/29 00:11:20;;;;;;;;;;;;;;;8.08;72.28;96305.16;3608660;39;20015;-53
2021/05/29 00:13:47;;;;;;;;;;;;;;;8.06;72.51;96304.56;3595515;39;19944;-57
2021/05/29 00:16:15;;;;;;;;;;;;;;;8.09;72.89;96305.94;3610222;39;19943;-53
2021/05/29 00:18:42;;;;;;;;;;;;;;;8.13;72.51;96305.25;3602528;39;19948;-53
2021/05/29 00:21:10;;;;;;;;;;;;;;;8.13;73.25;96312.34;3611337;39;19962;-53
2021/05/29 00:23:37;;;;;;;;;;;;;;;8.16;72.98;96307.41;3606705;39;19954;-53
2021/05/29 00:26:05;;;;;;;;;;;;;;;8.21;72.44;96311.19;3597137;39;19949;-52
2021/05/29 00:28:33;;;;;;;;;;;;;;;8.24;72.36;96303.63;3606590;39;20284;-53
2021/05/29 00:31:01;;;;;;;;;;;;;;;8.27;72.25;96308.44;3598835;39;19941;-53
2021/05/29 00:33:28;;;;;;;;;;;;;;;8.31;72.52;96303.50;3602664;39;19954;-53
2021/05/29 00:35:55;;;;;;;;;;;;;;;8.36;71.67;96308.06;3582952;39;19935;-53
2021/05/29 00:38:23;;;;;;;;;;;;;;;8.39;71.71;96308.41;3597814;39;19969;-53
2021/05/29 00:40:50;;;;;;;;;;;;;;;8.43;71.85;96300.88;3609112;39;19950;-52
2021/05/29 00:43:18;;;;;;;;;;;;;;;8.43;71.71;96300.88;3605507;39;20313;-53
2021/05/29 00:45:45;;;;;;;;;;;;;;;8.40;72.29;96296.88;3600665;39;19995;-53
2021/05/29 00:48:13;;;;;;;;;;;;;;;8.42;71.78;96307.16;3608966;39;20497;-53
2021/05/29 00:50:49;;;;;;;;;;;;;;;8.47;72.14;96302.00;3580981;39;20043;-53
2021/05/29 00:53:17;;;;;;;;;;;;;;;8.45;71.96;96304.06;3581878;39;20275;-53
2021/05/29 00:55:46;;;;;;;;;;;;;;;8.46;71.13;96300.41;3603827;39;20212;-52
2021/05/29 00:58:13;;;;;;;;;;;;;;;8.48;70.86;96303.63;3607700;39;19949;-53
2021/05/29 01:00:41;;;;;;;;;;;;;;;8.49;70.79;96299.97;3595970;39;20598;-53
2021/05/29 01:03:09;;;;;;;;;;;;;;;8.53;70.51;96292.41;3613637;39;20303;-55
2021/05/29 01:05:37;;;;;;;;;;;;;;;8.54;70.84;96284.31;3611752;39;19950;-52
2021/05/29 01:08:04;;;;;;;;;;;;;;;8.55;71.88;96283.28;3594439;39;19939;-53
2021/05/29 01:10:32;;;;;;;;;;;;;;;8.51;72.53;96286.56;3611302;39;19942;-52
2021/05/29 01:13:01;;;;;;;;;;;;;;;8.50;71.40;96285.78;3599460;39;20030;-52
2021/05/29 01:15:35;;;;;;;;;;;;;;;8.55;71.34;96285.09;3609853;39;20311;-53
2021/05/29 01:18:04;;;;;;;;;;;;;;;8.58;72.30;96287.25;3609764;39;19939;-52
2021/05/29 01:20:32;;;;;;;;;;;;;;;8.60;71.71;96291.25;3597252;39;19964;-52
2021/05/29 01:22:59;;;;;;;;;;;;;;;8.63;71.14;96294.44;3595402;39;19936;-53
2021/05/29 01:25:33;;;;;;;;;;;;;;;8.66;71.23;96297.41;3607704;39;19942;-53
2021/05/29 01:28:10;;;;;;;;;;;;;;;8.65;70.59;96293.16;3607768;39;19935;-52
2021/05/29 01:30:45;;;;;;;;;;;;;;;8.63;71.32;96294.44;3598930;39;19943;-52
2021/05/29 01:33:14;;;;;;;;;;;;;;;8.59;70.94;96288.84;3608548;39;19935;-53
2021/05/29 01:35:42;;;;;;;;;;;;;;;8.56;71.82;96292.72;3599309;39;19953;-52
2021/05/29 01:38:14;;;;;;;;;;;;;;;8.51;72.49;96297.91;3590443;39;19935;-52
2021/05/29 01:40:42;;;;;;;;;;;;;;;8.53;72.19;96302.91;3611621;39;19943;-52
2021/05/29 01:43:10;;;;;;;;;;;;;;;8.52;71.29;96302.13;3609520;39;19943;-52
2021/05/29 01:45:38;;;;;;;;;;;;;;;8.53;71.46;96303.75;3610033;39;19947;-52
2021/05/29 01:48:06;;;;;;;;;;;;;;;8.55;72.13;96308.75;3598284;39;19948;-52
2021/05/29 01:50:45;;;;;;;;;;;;;;;8.58;72.99;96305.66;3589096;39;20216;-52
2021/05/29 01:53:14;;;;;;;;;;;;;;;8.60;71.94;96303.59;3612877;39;19935;-52
2021/05/29 01:55:42;;;;;;;;;;;;;;;8.60;71.80;96291.25;3612510;39;19943;-53
2021/05/29 01:58:10;;;;;;;;;;;;;;;8.59;71.72;96297.53;3607160;39;19935;-52
2021/05/29 02:00:37;;;;;;;;;;;;;;;8.60;71.19;96296.50;3607919;39;20534;-57
2021/05/29 02:03:05;;;;;;;;;;;;;;;8.61;71.64;96292.84;3603696;39;19932;-52
2021/05/29 02:05:33;;;;;;;;;;;;;;;8.61;72.20;96294.69;3598144;39;19942;-53
2021/05/29 02:08:05;;;;;;;;;;;;;;;8.63;70.65;96289.97;3612561;39;19935;-53
2021/05/29 02:10:33;;;;;;;;;;;;;;;8.67;70.22;96282.44;3609182;39;20281;-52
2021/05/29 02:13:02;;;;;;;;;;;;;;;8.72;70.87;96277.25;3612531;39;19943;-53
2021/05/29 02:15:30;;;;;;;;;;;;;;;8.75;71.35;96285.47;3607471;39;19932;-53
2021/05/29 02:18:00;;;;;;;;;;;;;;;8.67;71.64;96274.53;3612261;39;19949;-52
2021/05/29 02:20:53;;;;;;;;;;;;;;;8.70;71.32;96264.34;3610954;39;19993;-53
2021/05/29 02:23:22;;;;;;;;;;;;;;;8.74;70.70;96254.16;3597409;39;19944;-54
2021/05/29 02:25:50;;;;;;;;;;;;;;;8.69;71.46;96249.59;3599000;39;19936;-52
2021/05/29 02:28:19;;;;;;;;;;;;;;;8.66;72.04;96255.31;3587366;39;20285;-52
2021/05/29 02:30:47;;;;;;;;;;;;;;;8.68;71.58;96263.78;3609843;39;19947;-60
2021/05/29 02:33:15;;;;;;;;;;;;;;;8.70;72.06;96260.91;3613278;39;20204;-53
2021/05/29 02:35:42;;;;;;;;;;;;;;;8.76;71.54;96262.63;3609557;39;19943;-52
2021/05/29 02:38:10;;;;;;;;;;;;;;;8.82;71.96;96261.66;3612186;39;19935;-53
2021/05/29 02:40:37;;;;;;;;;;;;;;;8.80;72.38;96263.72;3601175;39;19950;-53
2021/05/29 02:43:05;;;;;;;;;;;;;;;8.77;71.65;96254.47;3609029;39;20336;-54
2021/05/29 02:45:34;;;;;;;;;;;;;;;8.79;71.55;96259.53;3608486;39;20281;-53
2021/05/29 02:48:02;;;;;;;;;;;;;;;8.75;72.49;96258.38;3599461;39;19947;-53
2021/05/29 02:50:29;;;;;;;;;;;;;;;8.73;71.71;96258.63;3597355;39;20296;-53
2021/05/29 02:52:57;;;;;;;;;;;;;;;8.77;71.55;96261.59;3607229;39;20035;-54
2021/05/29 02:55:24;;;;;;;;;;;;;;;8.79;70.98;96264.78;3590099;39;19936;-52
2021/05/29 02:57:53;;;;;;;;;;;;;;;8.80;70.87;96255.81;3613045;39;19955;-53
2021/05/29 03:00:21;;;;;;;;;;;;;;;8.83;71.52;96260.63;3603705;39;19944;-53
2021/05/29 03:02:49;;;;;;;;;;;;;;;8.89;72.02;96258.88;3611625;39;20023;-52
2021/05/29 03:05:17;;;;;;;;;;;;;;;8.91;72.14;96251.56;3599785;39;19942;-52
2021/05/29 03:07:46;;;;;;;;;;;;;;;8.93;71.57;96252.13;3599600;39;19947;-53
2021/05/29 03:10:14;;;;;;;;;;;;;;;8.89;71.54;96243.91;3598461;39;20369;-53
2021/05/29 03:12:41;;;;;;;;;;;;;;;8.91;71.47;96247.13;3604293;39;19943;-53
2021/05/29 03:15:12;;;;;;;;;;;;;;;8.93;71.03;96249.50;3609993;39;19993;-52
2021/05/29 03:17:40;;;;;;;;;;;;;;;8.95;71.62;96243.97;3607090;39;19961;-52
2021/05/29 03:20:08;;;;;;;;;;;;;;;8.87;72.21;96238.09;3608329;39;20273;-52
2021/05/29 03:22:36;;;;;;;;;;;;;;;8.90;71.72;96242.88;3598792;39;19941;-53
2021/05/29 03:25:05;;;;;;;;;;;;;;;8.91;71.51;96243.66;3614293;39;19965;-52
2021/05/29 03:27:32;;;;;;;;;;;;;;;8.95;71.38;96234.28;3590572;39;19941;-54
2021/05/29 03:30:00;;;;;;;;;;;;;;;8.97;71.52;96234.03;3605551;39;20929;-54
2021/05/29 03:32:28;;;;;;;;;;;;;;;9.00;71.36;96241.47;3604574;39;19965;-54
2021/05/29 03:34:55;;;;;;;;;;;;;;;9.04;71.27;96238.09;3613724;39;19943;-54
2021/05/29 03:37:23;;;;;;;;;;;;;;;9.08;70.96;96233.16;3597026;39;19950;-54
2021/05/29 03:39:51;;;;;;;;;;;;;;;9.09;71.38;96234.75;3610738;39;19942;-53
2021/05/29 03:42:18;;;;;;;;;;;;;;;9.10;70.84;96243.47;3611678;39;20715;-53
2021/05/29 03:44:46;;;;;;;;;;;;;;;9.12;70.66;96236.94;3613483;39;20657;-53
2021/05/29 03:47:13;;;;;;;;;;;;;;;9.15;70.81;96243.53;3608278;39;19968;-53
2021/05/29 03:49:41;;;;;;;;;;;;;;;9.15;71.07;96239.09;3588111;39;19935;-54
2021/05/29 03:52:09;;;;;;;;;;;;;;;9.17;70.88;96244.88;3613349;39;20207;-54
2021/05/29 03:54:37;;;;;;;;;;;;;;;9.17;70.31;96239.63;3593389;39;20266;-53
2021/05/29 03:57:04;;;;;;;;;;;;;;;9.15;71.12;96249.63;3606739;39;19950;-54
2021/05/29 03:59:32;;;;;;;;;;;;;;;9.15;70.37;96246.16;3595679;39;19974;-53
2021/05/29 04:01:59;;;;;;;;;;;;;;;9.15;70.94;96254.88;3607009;39;19935;-53
2021/05/29 04:04:27;;;;;;;;;;;;;;;9.17;71.24;96258.03;3596767;39;19936;-53
2021/05/29 04:06:54;;;;;;;;;;;;;;;9.21;70.72;96259.19;3610045;39;20174;-53
2021/05/29 04:09:22;;;;;;;;;;;;;;;9.24;70.84;96260.53;3606957;39;19940;-53
2021/05/29 04:11:49;;;;;;;;;;;;;;;9.26;70.85;96262.94;3610734;39;19965;-52
2021/05/29 04:14:17;;;;;;;;;;;;;;;9.31;70.68;96265.63;3599279;39;19954;-53
2021/05/29 04:16:44;;;;;;;;;;;;;;;9.31;70.20;96269.09;3586694;39;20224;-53
2021/05/29 04:19:12;;;;;;;;;;;;;;;9.33;70.49;96266.19;3586849;39;19944;-53
2021/05/29 04:21:39;;;;;;;;;;;;;;;9.35;70.31;96264.13;3604167;39;20376;-53
2021/05/29 04:24:07;;;;;;;;;;;;;;;9.35;70.20;96270.19;3604282;39;19950;-53
2021/05/29 04:26:35;;;;;;;;;;;;;;;9.38;70.42;96272.34;3605854;39;19935;-53
2021/05/29 04:29:03;;;;;;;;;;;;;;;9.40;69.93;96272.13;3598838;39;19943;-53
2021/05/29 04:31:30;;;;;;;;;;;;;;;9.39;70.23;96273.94;3600425;39;19950;-53
2021/05/29 04:33:58;;;;;;;;;;;;;;;9.43;70.17;96276.09;3610287;39;19942;-53
2021/05/29 04:36:26;;;;;;;;;;;;;;;9.43;70.03;96266.34;3600424;39;19935;-53
2021/05/29 04:38:53;;;;;;;;;;;;;;;9.42;70.03;96275.28;3609405;39;19948;-53
2021/05/29 04:41:21;;;;;;;;;;;;;;;9.45;70.12;96274.81;3609696;39;20292;-53
2021/05/29 04:43:49;;;;;;;;;;;;;;;9.49;70.21;96277.78;3609612;39;19981;-55
2021/05/29 04:46:17;;;;;;;;;;;;;;;9.50;70.72;96280.19;3608380;39;19935;-54
2021/05/29 04:48:45;;;;;;;;;;;;;;;9.54;70.33;96277.88;3606280;39;19944;-53
2021/05/29 04:51:13;;;;;;;;;;;;;;;9.60;70.41;96284.00;3609224;39;19939;-53
2021/05/29 04:53:41;;;;;;;;;;;;;;;9.64;70.54;96283.28;3600243;39;19947;-55
2021/05/29 04:56:11;;;;;;;;;;;;;;;9.69;70.34;96279.94;3584593;39;19970;-54
2021/05/29 04:58:38;;;;;;;;;;;;;;;9.73;70.72;96286.31;3610283;39;19943;-55
2021/05/29 05:01:07;;;;;;;;;;;;;;;9.76;70.67;96287.66;3605344;39;19939;-55
2021/05/29 05:03:35;;;;;;;;;;;;;;;9.79;70.82;96289.81;3600169;39;19947;-54
2021/05/29 05:06:03;;;;;;;;;;;;;;;9.82;70.74;96297.25;3610817;39;20500;-53
2021/05/29 05:08:31;;;;;;;;;;;;;;;9.84;70.66;96292.56;3603974;39;19935;-53
2021/05/29 05:10:59;;;;;;;;;;;;;;;9.87;70.85;96280.72;3594657;39;20276;-53
2021/05/29 05:13:27;;;;;;;;;;;;;;;9.91;70.83;96285.25;3609046;39;19966;-52
2021/05/29 05:15:55;;;;;;;;;;;;;;;9.98;70.21;96287.72;3603962;39;20023;-53
2021/05/29 05:18:23;;;;;;;;;;;;;;;10.06;69.72;96289.16;3610512;39;20361;-53
2021/05/29 05:20:51;;;;;;;;;;;;;;;10.11;69.75;96290.03;3593711;39;20301;-53
2021/05/29 05:23:21;;;;;;;;;;;;;;;10.19;69.24;96291.44;3592877;39;19947;-53
2021/05/29 05:25:49;;;;;;;;;;;;;;;10.28;69.45;96297.06;3604873;39;19936;-53
2021/05/29 05:28:16;;;;;;;;;;;;;;;10.37;68.76;96287.72;3603556;39;19936;-54
2021/05/29 05:30:44;;;;;;;;;;;;;;;10.49;68.48;96292.09;3606150;39;19936;-54
2021/05/29 05:33:11;;;;;;;;;;;;;;;10.58;67.89;96287.97;3609983;39;20178;-54
2021/05/29 05:35:40;;;;;;;;;;;;;;;10.68;68.19;96287.31;3594510;39;19936;-54
2021/05/29 05:38:08;;;;;;;;;;;;;;;10.79;67.57;96293.47;3608645;39;19942;-54
2021/05/29 05:40:35;;;;;;;;;;;;;;;10.86;67.57;96291.47;3611736;39;19944;-55
2021/05/29 05:43:03;;;;;;;;;;;;;;;10.95;67.08;96286.56;3601280;39;20515;-54
2021/05/29 05:45:30;;;;;;;;;;;;;;;11.04;66.84;96293.75;3594282;39;19947;-53
2021/05/29 05:47:58;;;;;;;;;;;;;;;11.17;66.69;96289.94;3608665;39;19935;-54
2021/05/29 05:50:26;;;;;;;;;;;;;;;11.31;66.96;96292.94;3606786;39;19935;-53
2021/05/29 05:52:53;;;;;;;;;;;;;;;11.37;66.06;96291.97;3597605;39;19939;-54
2021/05/29 05:55:23;;;;;;;;;;;;;;;11.49;66.15;96289.13;3599173;39;19936;-54
2021/05/29 05:57:51;;;;;;;;;;;;;;;11.60;65.45;96283.94;3598433;39;19947;-54
2021/05/29 06:00:19;;;;;;;;;;;;;;;11.64;65.77;96290.31;3611233;39;19949;-53
2021/05/29 06:02:47;;;;;;;;;;;;;;;11.68;65.16;96292.19;3606725;39;19961;-53
2021/05/29 06:05:15;;;;;;;;;;;;;;;11.77;63.88;96294.34;3592823;39;19949;-53
2021/05/29 06:07:43;;;;;;;;;;;;;;;11.81;64.38;96290.16;3597979;39;20525;-53
2021/05/29 06:10:10;;;;;;;;;;;;;;;11.87;63.70;96288.34;3600762;39;19943;-53
2021/05/29 06:12:42;;;;;;;;;;;;;;;11.93;64.73;96290.78;3607235;39;19954;-54
2021/05/29 06:18:05;;;;;;;;;;;;;;;12.12;64.06;96287.75;3603861;39;19940;-53
2021/05/29 06:20:36;;;;;;;;;;;;;;;12.10;63.27;96295.16;3596720;39;19954;-53
2021/05/29 06:23:04;;;;;;;;;;;;;;;12.15;62.83;96295.16;3604483;39;19947;-54
2021/05/29 06:25:32;;;;;;;;;;;;;;;12.23;62.55;96292.06;3593639;39;20311;-54
2021/05/29 06:27:59;;;;;;;;;;;;;;;12.42;61.99;96299.53;3607105;39;19948;-54
2021/05/29 06:30:26;;;;;;;;;;;;;;;12.67;61.45;96292.75;3592438;39;19939;-54
2021/05/29 06:32:54;;;;;;;;;;;;;;;12.91;59.70;96293.88;3594167;39;20204;-54
2021/05/29 06:35:22;;;;;;;;;;;;;;;13.18;60.10;96290.25;3610594;39;20285;-54
2021/05/29 06:37:49;;;;;;;;;;;;;;;13.45;57.92;96294.53;3612503;39;19941;-54
2021/05/29 06:40:17;;;;;;;;;;;;;;;13.68;56.99;96295.06;3609771;39;19936;-53
2021/05/29 06:42:44;;;;;;;;;;;;;;;13.90;56.37;96294.78;3597553;39;19944;-54
2021/05/29 06:45:12;;;;;;;;;;;;;;;14.23;55.33;96297.09;3611538;39;19940;-53
2021/05/29 06:47:40;;;;;;;;;;;;;;;14.28;56.02;96289.91;3612750;39;19939;-54
2021/05/29 06:50:09;;;;;;;;;;;;;;;14.32;56.44;96290.19;3597396;39;19944;-58
2021/05/29 06:52:40;;;;;;;;;;;;;;;14.52;54.91;96293.81;3596434;39;19939;-54
2021/05/29 06:58:48;;;;;;;;;;;;;;;14.62;52.70;96288.47;3613823;39;19950;-54
2021/05/29 07:00:42;;;;;;;;;;;;;;;14.51;53.01;96297.53;3607478;39;19954;-54
2021/05/29 07:03:09;;;;;;;;;;;;;;;14.39;52.75;96290.69;3604509;39;19969;-54
2021/05/29 07:05:37;;;;;;;;;;;;;;;14.55;53.43;96294.06;3611302;39;19942;-54
2021/05/29 07:08:05;;;;;;;;;;;;;;;14.68;52.34;96294.59;3606918;39;19931;-54
2021/05/29 07:10:32;;;;;;;;;;;;;;;14.80;51.98;96291.63;3612733;39;19942;-53
2021/05/29 07:13:00;;;;;;;;;;;;;;;14.80;52.33;96297.72;3606161;39;20212;-53
2021/05/29 07:15:34;;;;;;;;;;;;;;;15.04;51.55;96299.72;3605617;39;19946;-53
2021/05/29 07:18:11;;;;;;;;;;;;;;;15.22;51.05;96303.59;3587765;39;19950;-54
2021/05/29 07:20:40;;;;;;;;;;;;;;;15.18;49.55;96306.00;3591071;39;19932;-55
2021/05/29 07:23:07;;;;;;;;;;;;;;;15.03;50.22;96314.88;3612616;39;19949;-55
2021/05/29 07:25:36;;;;;;;;;;;;;;;14.61;50.17;96303.63;3598075;39;20212;-54
2021/05/29 07:28:04;;;;;;;;;;;;;;;14.57;50.78;96299.13;3601736;39;19945;-53
2021/05/29 07:30:31;;;;;;;;;;;;;;;14.43;50.43;96312.16;3593827;39;19973;-53
2021/05/29 07:32:59;;;;;;;;;;;;;;;14.21;51.25;96320.47;3606654;39;19935;-53
2021/05/29 07:35:27;;;;;;;;;;;;;;;13.81;51.53;96318.38;3610642;39;19948;-53
2021/05/29 07:37:55;;;;;;;;;;;;;;;13.74;51.76;96322.38;3598948;39;19946;-54
2021/05/29 07:40:23;;;;;;;;;;;;;;;13.68;53.06;96322.34;3590129;39;19951;-53
2021/05/29 07:42:50;;;;;;;;;;;;;;;13.57;53.74;96326.06;3595207;39;19954;-54
2021/05/29 07:45:18;;;;;;;;;;;;;;;13.42;51.39;96326.84;3609321;39;19942;-54
2021/05/29 07:47:45;;;;;;;;;;;;;;;13.33;53.11;96326.53;3612346;39;21343;-53
2021/05/29 07:50:13;;;;;;;;;;;;;;;13.19;53.94;96339.50;3604234;39;19942;-54
2021/05/29 07:52:42;;;;;;;;;;;;;;;12.89;56.73;96337.56;3600070;39;20038;-58
2021/05/29 07:55:11;;;;;;;;;;;;;;;12.83;57.55;96347.34;3602322;39;19942;-56
2021/05/29 07:57:38;;;;;;;;;;;;;;;12.83;56.37;96350.00;3606612;39;20314;-63
2021/05/29 08:00:09;;;;;;;;;;;;;;;12.86;56.46;96338.88;3598279;39;19945;-55
2021/05/29 08:02:40;;;;;;;;;;;;;;;13.05;54.96;96339.19;3601912;39;19947;-54
2021/05/29 08:05:19;;;;;;;;;;;;;;;13.20;55.22;96335.81;3605638;39;19958;-54
2021/05/29 08:07:47;;;;;;;;;;;;;;;13.25;53.75;96352.75;3609564;39;19942;-54
2021/05/29 08:10:14;;;;;;;;;;;;;;;13.26;54.49;96343.75;3590624;39;19949;-54
2021/05/29 08:12:42;;;;;;;;;;;;;;;13.35;54.70;96355.44;3613180;39;19947;-55
2021/05/29 08:15:10;;;;;;;;;;;;;;;13.14;54.34;96357.25;3595728;39;20427;-54
2021/05/29 08:17:38;;;;;;;;;;;;;;;12.36;55.68;96356.13;3610821;39;19936;-55
2021/05/29 08:20:06;;;;;;;;;;;;;;;12.53;55.41;96359.38;3611811;39;20266;-54
2021/05/29 08:22:33;;;;;;;;;;;;;;;12.42;55.34;96347.16;3613113;39;19962;-54
2021/05/29 08:25:01;;;;;;;;;;;;;;;12.45;56.23;96352.72;3599127;39;19967;-54
2021/05/29 08:27:28;;;;;;;;;;;;;;;12.41;55.24;96364.06;3609184;39;20219;-53
2021/05/29 08:29:57;;;;;;;;;;;;;;;12.56;54.75;96358.06;3610259;39;20204;-55
2021/05/29 08:32:25;;;;;;;;;;;;;;;12.77;53.25;96356.31;3599835;39;19950;-53
2021/05/29 08:34:52;;;;;;;;;;;;;;;12.75;53.33;96356.59;3601141;39;20296;-54
2021/05/29 08:37:20;;;;;;;;;;;;;;;12.87;54.35;96359.00;3614104;39;19943;-54
2021/05/29 08:39:47;;;;;;;;;;;;;;;13.00;54.24;96363.03;3614084;39;19950;-54
2021/05/29 08:42:15;;;;;;;;;;;;;;;12.97;53.56;96358.25;3610409;39;19942;-54
2021/05/29 08:44:43;;;;;;;;;;;;;;;13.16;52.87;96355.91;3599487;39;20207;-54
2021/05/29 08:47:10;;;;;;;;;;;;;;;13.26;52.61;96359.66;3614093;39;19963;-53
2021/05/29 08:49:38;;;;;;;;;;;;;;;13.40;51.94;96358.13;3613401;39;19975;-55
2021/05/29 08:52:07;;;;;;;;;;;;;;;13.54;52.00;96366.34;3612565;39;19940;-56
2021/05/29 08:54:35;;;;;;;;;;;;;;;13.58;51.20;96353.38;3613989;39;19939;-53
2021/05/29 08:57:03;;;;;;;;;;;;;;;13.78;52.18;96355.25;3581907;39;20586;-53
2021/05/29 08:59:31;;;;;;;;;;;;;;;14.08;50.64;96362.41;3611086;39;20248;-54
2021/05/29 09:02:04;;;;;;;;;;;;;;;14.16;49.67;96355.75;3608636;39;19935;-54
2021/05/29 09:04:32;;;;;;;;;;;;;;;14.40;49.03;96355.97;3589124;39;19944;-54
2021/05/29 09:06:59;;;;;;;;;;;;;;;14.33;48.32;96354.66;3600255;39;19949;-54
2021/05/29 09:09:27;;;;;;;;;;;;;;;14.04;49.46;96361.34;3584493;39;19945;-54
2021/05/29 09:11:57;;;;;;;;;;;;;;;14.01;49.45;96353.13;3612673;39;19953;-54
2021/05/29 09:14:28;;;;;;;;;;;;;;;14.04;49.19;96357.88;3600347;39;20457;-54
2021/05/29 09:17:04;;;;;;;;;;;;;;;14.14;49.58;96358.66;3611991;39;19936;-54
2021/05/29 09:19:52;;;;;;;;;;;;;;;14.19;49.97;96365.81;3612903;39;19962;-54
2021/05/29 09:22:23;;;;;;;;;;;;;;;14.24;50.87;96370.31;3597483;39;19936;-54
2021/05/29 09:25:06;;;;;;;;;;;;;;;14.26;48.25;96366.34;3589467;39;21309;-53
2021/05/29 09:27:38;;;;;;;;;;;;;;;14.61;48.94;96364.69;3600173;39;19935;-53
2021/05/29 09:30:08;;;;;;;;;;;;;;;15.04;49.35;96361.63;3613433;39;20219;-53
2021/05/29 09:32:36;;;;;;;;;;;;;;;15.42;47.82;96360.38;3614676;39;19935;-55
2021/05/29 09:35:08;;;;;;;;;;;;;;;15.42;45.80;96363.81;3588631;39;19954;-53
2021/05/29 09:37:36;;;;;;;;;;;;;;;15.91;44.84;96348.88;3613593;39;19968;-54
2021/05/29 09:40:03;;;;;;;;;;;;;;;16.06;43.41;96352.47;3605301;39;19946;-54
2021/05/29 09:42:33;;;;;;;;;;;;;;;15.94;43.22;96353.59;3596916;39;19943;-53
2021/05/29 09:45:21;;;;;;;;;;;;;;;16.22;44.77;96347.78;3605078;39;20223;-54
2021/05/29 09:48:08;;;;;;;;;;;;;;;16.26;43.74;96341.63;3611593;39;19940;-54
2021/05/29 09:50:37;;;;;;;;;;;;;;;15.89;43.67;96343.03;3604017;39;19935;-54
2021/05/29 09:53:23;;;;;;;;;;;;;;;16.07;44.44;96338.88;3609258;39;19973;-54
2021/05/29 09:55:50;;;;;;;;;;;;;;;15.79;44.23;96338.53;3611766;39;19935;-54
2021/05/29 09:58:18;;;;;;;;;;;;;;;15.41;44.85;96334.84;3602522;39;19940;-54
2021/05/29 10:00:51;;;;;;;;;;;;;;;15.31;47.52;96336.50;3600738;39;19935;-54
2021/05/29 10:03:19;;;;;;;;;;;;;;;15.29;46.63;96343.16;3613091;39;19932;-54
2021/05/29 10:05:49;;;;;;;;;;;;;;;15.19;47.27;96338.72;3611370;39;19940;-54
2021/05/29 10:08:18;;;;;;;;;;;;;;;14.93;48.26;96330.88;3610454;39;19942;-54
2021/05/29 10:10:46;;;;;;;;;;;;;;;14.64;48.78;96330.69;3613767;39;19942;-55
2021/05/29 10:13:13;;;;;;;;;;;;;;;14.42;49.14;96337.13;3610941;39;20256;-54
2021/05/29 10:15:40;;;;;;;;;;;;;;;14.38;49.87;96328.91;3591792;39;19943;-54
2021/05/29 10:18:09;;;;;;;;;;;;;;;14.40;49.13;96337.41;3611684;39;20488;-54
2021/05/29 10:20:37;;;;;;;;;;;;;;;14.29;49.53;96338.47;3614546;39;19935;-54
2021/05/29 10:23:05;;;;;;;;;;;;;;;14.15;49.99;96339.03;3597156;39;19954;-54
2021/05/29 10:25:34;;;;;;;;;;;;;;;14.40;48.17;96341.91;3595908;39;19939;-54
2021/05/29 10:28:02;;;;;;;;;;;;;;;14.53;48.29;96336.03;3599050;39;19935;-54
2021/05/29 10:30:31;;;;;;;;;;;;;;;14.53;48.55;96340.53;3599721;39;19943;-54
2021/05/29 10:33:12;;;;;;;;;;;;;;;14.59;49.39;96342.09;3606061;39;19935;-54
2021/05/29 10:35:39;;;;;;;;;;;;;;;14.91;47.16;96333.78;3614772;39;19939;-55
2021/05/29 10:38:07;;;;;;;;;;;;;;;15.22;48.03;96343.44;3612849;39;19945;-55
2021/05/29 10:40:38;;;;;;;;;;;;;;;15.66;46.77;96342.66;3592307;39;19936;-54
2021/05/29 10:43:16;;;;;;;;;;;;;;;15.89;45.86;96342.22;3615522;39;19939;-53
2021/05/29 10:45:50;;;;;;;;;;;;;;;16.09;45.40;96346.56;3614129;39;20264;-54
2021/05/29 10:48:18;;;;;;;;;;;;;;;16.13;44.81;96351.03;3614870;39;19939;-54
2021/05/29 10:51:00;;;;;;;;;;;;;;;16.10;44.69;96345.50;3613772;39;19939;-54
2021/05/29 10:53:33;;;;;;;;;;;;;;;15.44;47.00;96348.38;3613398;39;19946;-54
2021/05/29 10:56:20;;;;;;;;;;;;;;;15.28;47.47;96338.91;3609769;39;19936;-54
2021/05/29 10:58:54;;;;;;;;;;;;;;;15.58;47.53;96334.47;3614310;39;19936;-55
2021/05/29 11:01:22;;;;;;;;;;;;;;;15.71;48.63;96331.16;3601560;39;19947;-56
2021/05/29 11:04:15;;;;;;;;;;;;;;;15.70;44.93;96337.56;3594154;39;19940;-54
2021/05/29 11:06:43;;;;;;;;;;;;;;;15.54;45.43;96326.25;3593855;39;19950;-53
2021/05/29 11:09:12;;;;;;;;;;;;;;;15.48;45.57;96320.19;3601597;39;19978;-54
2021/05/29 11:11:58;;;;;;;;;;;;;;;15.66;45.22;96310.72;3596513;39;20293;-54
2021/05/29 11:14:30;;;;;;;;;;;;;;;15.64;44.11;96315.53;3596687;39;19943;-54
2021/05/29 11:16:57;;;;;;;;;;;;;;;15.81;43.50;96298.38;3605703;39;19954;-54
2021/05/29 11:19:29;;;;;;;;;;;;;;;16.10;44.54;96292.28;3604348;39;19936;-55
2021/05/29 11:22:13;;;;;;;;;;;;;;;16.52;44.07;96287.28;3608881;39;19942;-54
2021/05/29 11:24:50;;;;;;;;;;;;;;;16.77;43.70;96291.53;3606219;39;20394;-54
2021/05/29 11:27:19;;;;;;;;;;;;;;;17.20;40.93;96280.81;3602352;39;19936;-54
2021/05/29 11:29:54;;;;;;;;;;;;;;;17.23;39.82;96276.00;3604954;39;19942;-54
2021/05/29 11:35:18;;;;;;;;;;;;;;;17.22;40.09;96277.91;3602566;39;19935;-54
2021/05/29 11:37:55;;;;;;;;;;;;;;;17.11;40.35;96277.25;3603039;39;19950;-54
2021/05/29 11:40:22;;;;;;;;;;;;;;;17.12;40.96;96270.84;3600712;39;20033;-55
2021/05/29 11:42:50;;;;;;;;;;;;;;;17.01;40.75;96274.72;3578078;39;19967;-54
2021/05/29 11:45:21;;;;;;;;;;;;;;;17.12;39.79;96273.50;3589825;39;19954;-54
2021/05/29 11:47:52;;;;;;;;;;;;;;;16.99;40.03;96263.56;3598403;39;19942;-54
2021/05/29 11:50:20;;;;;;;;;;;;;;;17.01;40.00;96262.19;3598754;39;20128;-54
2021/05/29 11:52:47;;;;;;;;;;;;;;;16.83;42.56;96273.59;3600756;39;19944;-54
2021/05/29 11:55:15;;;;;;;;;;;;;;;16.40;41.23;96279.72;3602528;39;19970;-54
2021/05/29 11:57:59;;;;;;;;;;;;;;;15.79;41.63;96268.59;3603831;39;19940;-54
2021/05/29 12:00:28;;;;;;;;;;;;;;;15.00;42.92;96278.22;3604512;39;20179;-54
2021/05/29 12:02:56;;;;;;;;;;;;;;;15.02;42.99;96283.25;3589116;39;19937;-54
2021/05/29 12:05:36;;;;;;;;;;;;;;;15.13;43.88;96281.34;3613784;39;19941;-54
2021/05/29 12:08:05;;;;;;;;;;;;;;;15.21;42.97;96278.06;3602818;39;19947;-54
2021/05/29 12:10:51;;;;;;;;;;;;;;;15.33;42.40;96273.22;3596313;39;19947;-54
2021/05/29 12:13:27;;;;;;;;;;;;;;;15.62;42.46;96277.78;3592929;39;19950;-55
2021/05/29 12:16:01;;;;;;;;;;;;;;;15.74;43.33;96289.91;3609563;39;19942;-55
2021/05/29 12:18:38;;;;;;;;;;;;;;;15.77;43.03;96305.31;3588108;39;19935;-54
2021/05/29 12:21:07;;;;;;;;;;;;;;;15.29;43.49;96300.63;3591139;39;20498;-53
2021/05/29 12:23:51;;;;;;;;;;;;;;;15.12;44.10;96316.94;3611169;39;20370;-53
2021/05/29 12:26:19;;;;;;;;;;;;;;;14.73;44.34;96316.59;3610175;39;20307;-54
2021/05/29 12:28:47;;;;;;;;;;;;;;;14.56;44.62;96322.22;3610724;39;19935;-54
2021/05/29 12:31:15;;;;;;;;;;;;;;;14.46;45.71;96325.69;3612989;39;19935;-54
2021/05/29 12:33:42;;;;;;;;;;;;;;;14.41;45.91;96331.03;3613135;39;19939;-54
2021/05/29 12:36:12;;;;;;;;;;;;;;;14.55;45.78;96335.75;3599621;39;20406;-54
2021/05/29 12:38:53;;;;;;;;;;;;;;;14.67;45.15;96335.44;3606458;39;20305;-54
2021/05/29 12:41:24;;;;;;;;;;;;;;;14.79;44.93;96329.88;3607737;39;19939;-54
2021/05/29 12:44:20;;;;;;;;;;;;;;;14.69;45.11;96330.69;3597956;39;19947;-54
2021/05/29 12:46:52;;;;;;;;;;;;;;;14.24;45.35;96339.28;3599621;39;20334;-54
2021/05/29 12:49:20;;;;;;;;;;;;;;;13.82;49.00;96338.53;3599325;39;20565;-53
2021/05/29 12:51:49;;;;;;;;;;;;;;;13.58;48.83;96348.88;3600111;39;20282;-54
2021/05/29 12:54:17;;;;;;;;;;;;;;;13.26;50.96;96357.00;3600456;39;19939;-54
2021/05/29 12:56:52;;;;;;;;;;;;;;;13.20;50.37;96345.59;3591532;39;19947;-54
2021/05/29 12:59:27;;;;;;;;;;;;;;;13.01;51.77;96350.56;3606686;39;19961;-54
2021/05/29 13:07:35;;;;;;;;;;;;;;;12.57;52.96;96351.72;3602138;39;20304;-54
2021/05/29 13:10:21;;;;;;;;;;;;;;;12.75;53.58;96350.47;3586861;39;19946;-54
2021/05/29 13:12:58;;;;;;;;;;;;;;;12.87;51.81;96356.34;3598919;39;19950;-54
2021/05/29 13:15:26;;;;;;;;;;;;;;;12.90;50.98;96353.19;3592515;39;20174;-54
2021/05/29 13:18:12;;;;;;;;;;;;;;;13.08;51.05;96351.13;3599760;39;19942;-54